sensor_id;sensor_type;location;lat;lon;timestamp;P1;durP1;ratioP1;P2;durP2;ratioP2
23434;SDS011;11890;45.380;11.028;2022-12-10T00:01:48;45.88;;;21.98;;
23434;SDS011;11890;45.380;11.028;2022-12-10T00:04:19;52.97;;;22.90;;
23434;SDS011;11890;45.380;11.028;2022-12-10T00:06:47;50.85;;;23.55;;
23434;SDS011;11890;45.380;11.028;2022-12-10T00:09:15;47.08;;;21.50;;
23434;SDS011;11890;45.380;11.028;2022-12-10T00:11:44;57.22;;;23.38;;
23434;SDS011;11890;45.380;11.028;2022-12-10T00:14:12;46.13;;;21.80;;
23434;SDS011;11890;45.380;11.028;2022-12-10T00:16:40;45.20;;;21.42;;
23434;SDS011;11890;45.380;11.028;2022-12-10T00:19:08;46.63;;;22.42;;
23434;SDS011;11890;45.380;11.028;2022-12-10T00:21:36;51.10;;;22.08;;
23434;SDS011;11890;45.380;11.028;2022-12-10T00:24:04;51.60;;;22.58;;
23434;SDS011;11890;45.380;11.028;2022-12-10T00:26:34;48.28;;;23.10;;
23434;SDS011;11890;45.380;11.028;2022-12-10T00:29:04;49.17;;;23.60;;
23434;SDS011;11890;45.380;11.028;2022-12-10T00:31:34;54.40;;;23.98;;
23434;SDS011;11890;45.380;11.028;2022-12-10T00:34:04;56.65;;;27.38;;
23434;SDS011;11890;45.380;11.028;2022-12-10T00:36:34;45.80;;;20.92;;
23434;SDS011;11890;45.380;11.028;2022-12-10T00:39:05;51.67;;;21.23;;
23434;SDS011;11890;45.380;11.028;2022-12-10T00:41:33;50.33;;;22.23;;
23434;SDS011;11890;45.380;11.028;2022-12-10T00:44:01;42.25;;;20.70;;
23434;SDS011;11890;45.380;11.028;2022-12-10T00:46:28;47.25;;;22.30;;
23434;SDS011;11890;45.380;11.028;2022-12-10T00:48:57;49.40;;;21.50;;
23434;SDS011;11890;45.380;11.028;2022-12-10T00:51:26;49.53;;;22.40;;
23434;SDS011;11890;45.380;11.028;2022-12-10T00:53:55;44.97;;;22.35;;
23434;SDS011;11890;45.380;11.028;2022-12-10T00:56:25;46.17;;;21.63;;
23434;SDS011;11890;45.380;11.028;2022-12-10T00:58:55;41.42;;;20.58;;
23434;SDS011;11890;45.380;11.028;2022-12-10T01:01:27;47.67;;;22.73;;
23434;SDS011;11890;45.380;11.028;2022-12-10T01:04:03;51.95;;;22.58;;
23434;SDS011;11890;45.380;11.028;2022-12-10T01:06:41;45.55;;;22.70;;
23434;SDS011;11890;45.380;11.028;2022-12-10T01:09:17;48.97;;;23.02;;
23434;SDS011;11890;45.380;11.028;2022-12-10T01:11:52;46.15;;;22.85;;
23434;SDS011;11890;45.380;11.028;2022-12-10T01:14:22;53.40;;;22.50;;
23434;SDS011;11890;45.380;11.028;2022-12-10T01:16:56;43.33;;;20.98;;
23434;SDS011;11890;45.380;11.028;2022-12-10T01:19:30;45.75;;;21.70;;
23434;SDS011;11890;45.380;11.028;2022-12-10T01:22:01;46.88;;;22.15;;
23434;SDS011;11890;45.380;11.028;2022-12-10T01:24:29;48.15;;;22.75;;
23434;SDS011;11890;45.380;11.028;2022-12-10T01:26:57;44.78;;;22.42;;
23434;SDS011;11890;45.380;11.028;2022-12-10T01:29:26;50.28;;;25.02;;
23434;SDS011;11890;45.380;11.028;2022-12-10T01:31:55;45.58;;;22.40;;
23434;SDS011;11890;45.380;11.028;2022-12-10T01:34:24;46.80;;;22.17;;
23434;SDS011;11890;45.380;11.028;2022-12-10T01:36:55;39.13;;;20.67;;
23434;SDS011;11890;45.380;11.028;2022-12-10T01:39:23;46.00;;;22.23;;
23434;SDS011;11890;45.380;11.028;2022-12-10T01:41:56;48.72;;;22.65;;
23434;SDS011;11890;45.380;11.028;2022-12-10T01:46:54;40.70;;;21.00;;
23434;SDS011;11890;45.380;11.028;2022-12-10T01:49:34;41.70;;;21.80;;
23434;SDS011;11890;45.380;11.028;2022-12-10T01:52:05;45.80;;;22.65;;
23434;SDS011;11890;45.380;11.028;2022-12-10T01:54:35;45.38;;;22.08;;
23434;SDS011;11890;45.380;11.028;2022-12-10T01:59:36;46.17;;;22.73;;
23434;SDS011;11890;45.380;11.028;2022-12-10T02:05:04;46.47;;;24.00;;
23434;SDS011;11890;45.380;11.028;2022-12-10T02:07:57;45.90;;;23.58;;
23434;SDS011;11890;45.380;11.028;2022-12-10T02:16:40;43.75;;;22.67;;
23434;SDS011;11890;45.380;11.028;2022-12-10T02:21:45;39.17;;;21.25;;
23434;SDS011;11890;45.380;11.028;2022-12-10T02:24:17;46.15;;;23.23;;
23434;SDS011;11890;45.380;11.028;2022-12-10T02:29:26;40.97;;;22.50;;
23434;SDS011;11890;45.380;11.028;2022-12-10T02:32:41;47.97;;;23.92;;
23434;SDS011;11890;45.380;11.028;2022-12-10T02:34:53;45.85;;;23.80;;
23434;SDS011;11890;45.380;11.028;2022-12-10T02:37:27;43.53;;;22.10;;
23434;SDS011;11890;45.380;11.028;2022-12-10T02:39:59;43.50;;;22.50;;
23434;SDS011;11890;45.380;11.028;2022-12-10T02:42:34;41.55;;;22.05;;
23434;SDS011;11890;45.380;11.028;2022-12-10T02:45:06;45.63;;;23.27;;
23434;SDS011;11890;45.380;11.028;2022-12-10T02:47:35;45.40;;;22.92;;
23434;SDS011;11890;45.380;11.028;2022-12-10T02:50:06;45.50;;;23.70;;
23434;SDS011;11890;45.380;11.028;2022-12-10T02:52:37;38.45;;;21.10;;
23434;SDS011;11890;45.380;11.028;2022-12-10T02:55:04;50.25;;;23.67;;
23434;SDS011;11890;45.380;11.028;2022-12-10T03:00:21;48.15;;;24.48;;
23434;SDS011;11890;45.380;11.028;2022-12-10T03:08:52;46.65;;;24.20;;
23434;SDS011;11890;45.380;11.028;2022-12-10T03:11:26;48.40;;;25.52;;
23434;SDS011;11890;45.380;11.028;2022-12-10T03:16:31;43.67;;;23.23;;
23434;SDS011;11890;45.380;11.028;2022-12-10T03:19:10;51.55;;;27.15;;
23434;SDS011;11890;45.380;11.028;2022-12-10T03:21:42;50.28;;;24.95;;
23434;SDS011;11890;45.380;11.028;2022-12-10T03:24:13;47.95;;;23.88;;
23434;SDS011;11890;45.380;11.028;2022-12-10T03:26:44;41.88;;;22.17;;
23434;SDS011;11890;45.380;11.028;2022-12-10T03:29:15;46.05;;;22.75;;
23434;SDS011;11890;45.380;11.028;2022-12-10T03:31:51;44.63;;;22.98;;
23434;SDS011;11890;45.380;11.028;2022-12-10T03:34:20;42.17;;;22.27;;
23434;SDS011;11890;45.380;11.028;2022-12-10T03:36:49;43.75;;;22.58;;
23434;SDS011;11890;45.380;11.028;2022-12-10T03:39:18;46.80;;;23.52;;
23434;SDS011;11890;45.380;11.028;2022-12-10T03:41:45;44.97;;;23.00;;
23434;SDS011;11890;45.380;11.028;2022-12-10T03:44:13;47.58;;;23.65;;
23434;SDS011;11890;45.380;11.028;2022-12-10T03:46:53;42.65;;;22.73;;
23434;SDS011;11890;45.380;11.028;2022-12-10T03:49:20;43.92;;;25.20;;
23434;SDS011;11890;45.380;11.028;2022-12-10T03:51:48;48.70;;;25.10;;
23434;SDS011;11890;45.380;11.028;2022-12-10T03:54:16;44.13;;;22.95;;
23434;SDS011;11890;45.380;11.028;2022-12-10T03:56:44;41.50;;;23.20;;
23434;SDS011;11890;45.380;11.028;2022-12-10T03:59:11;47.33;;;24.02;;
23434;SDS011;11890;45.380;11.028;2022-12-10T04:01:39;46.03;;;25.00;;
23434;SDS011;11890;45.380;11.028;2022-12-10T04:04:08;39.35;;;21.77;;
23434;SDS011;11890;45.380;11.028;2022-12-10T04:06:39;41.63;;;22.40;;
23434;SDS011;11890;45.380;11.028;2022-12-10T04:09:11;45.30;;;23.08;;
23434;SDS011;11890;45.380;11.028;2022-12-10T04:14:10;43.92;;;23.95;;
23434;SDS011;11890;45.380;11.028;2022-12-10T04:16:57;44.03;;;23.95;;
23434;SDS011;11890;45.380;11.028;2022-12-10T04:19:25;42.45;;;23.65;;
23434;SDS011;11890;45.380;11.028;2022-12-10T04:21:53;42.40;;;23.77;;
23434;SDS011;11890;45.380;11.028;2022-12-10T04:24:39;44.83;;;23.67;;
23434;SDS011;11890;45.380;11.028;2022-12-10T04:27:27;44.88;;;23.60;;
23434;SDS011;11890;45.380;11.028;2022-12-10T04:29:57;45.15;;;24.77;;
23434;SDS011;11890;45.380;11.028;2022-12-10T04:32:27;46.78;;;24.08;;
23434;SDS011;11890;45.380;11.028;2022-12-10T04:34:56;48.15;;;25.50;;
23434;SDS011;11890;45.380;11.028;2022-12-10T04:37:24;47.90;;;24.70;;
23434;SDS011;11890;45.380;11.028;2022-12-10T04:39:53;51.95;;;26.48;;
23434;SDS011;11890;45.380;11.028;2022-12-10T04:42:21;45.67;;;24.63;;
23434;SDS011;11890;45.380;11.028;2022-12-10T04:44:49;50.10;;;26.52;;
23434;SDS011;11890;45.380;11.028;2022-12-10T04:47:17;56.05;;;28.25;;
23434;SDS011;11890;45.380;11.028;2022-12-10T04:49:45;47.03;;;26.17;;
23434;SDS011;11890;45.380;11.028;2022-12-10T04:52:13;50.08;;;25.05;;
23434;SDS011;11890;45.380;11.028;2022-12-10T04:54:43;46.03;;;25.92;;
23434;SDS011;11890;45.380;11.028;2022-12-10T04:57:11;42.88;;;25.80;;
23434;SDS011;11890;45.380;11.028;2022-12-10T04:59:40;45.33;;;24.90;;
23434;SDS011;11890;45.380;11.028;2022-12-10T05:02:08;46.03;;;23.83;;
23434;SDS011;11890;45.380;11.028;2022-12-10T05:04:36;47.08;;;24.30;;
23434;SDS011;11890;45.380;11.028;2022-12-10T05:07:04;47.70;;;25.92;;
23434;SDS011;11890;45.380;11.028;2022-12-10T05:09:31;45.95;;;24.17;;
23434;SDS011;11890;45.380;11.028;2022-12-10T05:11:59;46.92;;;24.00;;
23434;SDS011;11890;45.380;11.028;2022-12-10T05:14:27;42.45;;;23.13;;
23434;SDS011;11890;45.380;11.028;2022-12-10T05:16:54;43.88;;;23.73;;
23434;SDS011;11890;45.380;11.028;2022-12-10T05:19:22;42.67;;;24.95;;
23434;SDS011;11890;45.380;11.028;2022-12-10T05:21:52;45.80;;;25.42;;
23434;SDS011;11890;45.380;11.028;2022-12-10T05:24:38;47.70;;;25.02;;
23434;SDS011;11890;45.380;11.028;2022-12-10T05:27:06;48.22;;;24.42;;
23434;SDS011;11890;45.380;11.028;2022-12-10T05:29:34;44.58;;;24.83;;
23434;SDS011;11890;45.380;11.028;2022-12-10T05:32:02;46.92;;;23.85;;
23434;SDS011;11890;45.380;11.028;2022-12-10T05:34:31;48.55;;;24.33;;
23434;SDS011;11890;45.380;11.028;2022-12-10T05:36:59;45.80;;;24.52;;
23434;SDS011;11890;45.380;11.028;2022-12-10T05:39:26;40.78;;;22.90;;
23434;SDS011;11890;45.380;11.028;2022-12-10T05:41:54;44.90;;;25.08;;
23434;SDS011;11890;45.380;11.028;2022-12-10T05:44:23;45.00;;;26.20;;
23434;SDS011;11890;45.380;11.028;2022-12-10T05:46:52;42.50;;;23.58;;
23434;SDS011;11890;45.380;11.028;2022-12-10T05:49:20;46.00;;;25.27;;
23434;SDS011;11890;45.380;11.028;2022-12-10T05:51:48;44.45;;;24.35;;
23434;SDS011;11890;45.380;11.028;2022-12-10T05:54:15;48.55;;;26.13;;
23434;SDS011;11890;45.380;11.028;2022-12-10T05:56:43;48.33;;;25.10;;
23434;SDS011;11890;45.380;11.028;2022-12-10T05:59:11;45.10;;;24.38;;
23434;SDS011;11890;45.380;11.028;2022-12-10T06:01:43;46.92;;;25.05;;
23434;SDS011;11890;45.380;11.028;2022-12-10T06:04:10;43.88;;;22.73;;
23434;SDS011;11890;45.380;11.028;2022-12-10T06:06:39;39.95;;;21.92;;
23434;SDS011;11890;45.380;11.028;2022-12-10T06:09:10;45.65;;;25.15;;
23434;SDS011;11890;45.380;11.028;2022-12-10T06:11:39;44.55;;;24.25;;
23434;SDS011;11890;45.380;11.028;2022-12-10T06:14:08;46.58;;;24.73;;
23434;SDS011;11890;45.380;11.028;2022-12-10T06:16:36;46.85;;;23.40;;
23434;SDS011;11890;45.380;11.028;2022-12-10T06:19:06;43.92;;;24.63;;
23434;SDS011;11890;45.380;11.028;2022-12-10T06:21:34;48.08;;;24.92;;
23434;SDS011;11890;45.380;11.028;2022-12-10T06:24:02;47.33;;;23.95;;
23434;SDS011;11890;45.380;11.028;2022-12-10T06:26:30;49.88;;;26.05;;
23434;SDS011;11890;45.380;11.028;2022-12-10T06:28:57;51.90;;;26.70;;
23434;SDS011;11890;45.380;11.028;2022-12-10T06:31:27;52.92;;;27.08;;
23434;SDS011;11890;45.380;11.028;2022-12-10T06:33:55;54.47;;;28.52;;
23434;SDS011;11890;45.380;11.028;2022-12-10T06:36:23;50.67;;;26.42;;
23434;SDS011;11890;45.380;11.028;2022-12-10T06:38:50;48.88;;;27.05;;
23434;SDS011;11890;45.380;11.028;2022-12-10T06:41:18;47.75;;;26.40;;
23434;SDS011;11890;45.380;11.028;2022-12-10T06:43:47;46.63;;;25.48;;
23434;SDS011;11890;45.380;11.028;2022-12-10T06:46:16;45.97;;;27.02;;
23434;SDS011;11890;45.380;11.028;2022-12-10T06:48:46;54.25;;;25.65;;
23434;SDS011;11890;45.380;11.028;2022-12-10T06:51:14;48.47;;;24.20;;
23434;SDS011;11890;45.380;11.028;2022-12-10T06:53:42;43.90;;;26.40;;
23434;SDS011;11890;45.380;11.028;2022-12-10T06:56:12;42.55;;;23.88;;
23434;SDS011;11890;45.380;11.028;2022-12-10T06:58:41;42.85;;;24.67;;
23434;SDS011;11890;45.380;11.028;2022-12-10T07:01:11;45.38;;;25.27;;
23434;SDS011;11890;45.380;11.028;2022-12-10T07:03:39;44.63;;;22.65;;
23434;SDS011;11890;45.380;11.028;2022-12-10T07:06:09;49.88;;;24.85;;
23434;SDS011;11890;45.380;11.028;2022-12-10T07:08:37;45.55;;;25.30;;
23434;SDS011;11890;45.380;11.028;2022-12-10T07:11:14;45.15;;;26.20;;
23434;SDS011;11890;45.380;11.028;2022-12-10T07:13:44;46.45;;;26.30;;
23434;SDS011;11890;45.380;11.028;2022-12-10T07:16:13;44.58;;;24.80;;
23434;SDS011;11890;45.380;11.028;2022-12-10T07:18:42;51.15;;;25.55;;
23434;SDS011;11890;45.380;11.028;2022-12-10T07:21:21;44.85;;;23.48;;
23434;SDS011;11890;45.380;11.028;2022-12-10T07:23:56;46.17;;;25.38;;
23434;SDS011;11890;45.380;11.028;2022-12-10T07:26:25;51.17;;;25.08;;
23434;SDS011;11890;45.380;11.028;2022-12-10T07:28:54;44.90;;;25.67;;
23434;SDS011;11890;45.380;11.028;2022-12-10T07:31:23;50.85;;;27.58;;
23434;SDS011;11890;45.380;11.028;2022-12-10T07:33:51;46.42;;;25.80;;
23434;SDS011;11890;45.380;11.028;2022-12-10T07:36:20;45.08;;;24.80;;
23434;SDS011;11890;45.380;11.028;2022-12-10T07:38:52;44.22;;;24.58;;
23434;SDS011;11890;45.380;11.028;2022-12-10T07:41:21;44.78;;;26.15;;
23434;SDS011;11890;45.380;11.028;2022-12-10T07:43:50;49.72;;;25.23;;
23434;SDS011;11890;45.380;11.028;2022-12-10T07:46:19;50.17;;;27.17;;
23434;SDS011;11890;45.380;11.028;2022-12-10T07:48:48;53.83;;;26.23;;
23434;SDS011;11890;45.380;11.028;2022-12-10T07:51:17;55.17;;;27.95;;
23434;SDS011;11890;45.380;11.028;2022-12-10T07:53:48;56.78;;;29.00;;
23434;SDS011;11890;45.380;11.028;2022-12-10T07:56:18;60.20;;;31.70;;
23434;SDS011;11890;45.380;11.028;2022-12-10T07:58:45;54.53;;;27.10;;
23434;SDS011;11890;45.380;11.028;2022-12-10T08:01:18;49.00;;;28.05;;
23434;SDS011;11890;45.380;11.028;2022-12-10T08:03:51;54.65;;;27.35;;
23434;SDS011;11890;45.380;11.028;2022-12-10T08:06:20;49.88;;;28.05;;
23434;SDS011;11890;45.380;11.028;2022-12-10T08:08:48;48.13;;;27.58;;
23434;SDS011;11890;45.380;11.028;2022-12-10T08:11:17;48.78;;;26.38;;
23434;SDS011;11890;45.380;11.028;2022-12-10T08:13:46;48.95;;;26.27;;
23434;SDS011;11890;45.380;11.028;2022-12-10T08:16:23;51.72;;;27.20;;
23434;SDS011;11890;45.380;11.028;2022-12-10T08:18:55;45.42;;;24.63;;
23434;SDS011;11890;45.380;11.028;2022-12-10T08:21:25;44.70;;;24.98;;
23434;SDS011;11890;45.380;11.028;2022-12-10T08:23:54;47.90;;;25.73;;
23434;SDS011;11890;45.380;11.028;2022-12-10T08:26:23;52.78;;;27.38;;
23434;SDS011;11890;45.380;11.028;2022-12-10T08:28:53;49.80;;;28.63;;
23434;SDS011;11890;45.380;11.028;2022-12-10T08:31:23;60.13;;;30.05;;
23434;SDS011;11890;45.380;11.028;2022-12-10T08:33:52;53.00;;;27.58;;
23434;SDS011;11890;45.380;11.028;2022-12-10T08:36:20;55.53;;;28.50;;
23434;SDS011;11890;45.380;11.028;2022-12-10T08:38:48;58.60;;;29.13;;
23434;SDS011;11890;45.380;11.028;2022-12-10T08:41:20;52.70;;;25.88;;
23434;SDS011;11890;45.380;11.028;2022-12-10T08:46:19;49.90;;;26.40;;
23434;SDS011;11890;45.380;11.028;2022-12-10T08:48:47;55.80;;;28.67;;
23434;SDS011;11890;45.380;11.028;2022-12-10T08:51:16;56.55;;;29.35;;
23434;SDS011;11890;45.380;11.028;2022-12-10T08:53:45;50.78;;;27.20;;
23434;SDS011;11890;45.380;11.028;2022-12-10T08:56:13;59.22;;;27.13;;
23434;SDS011;11890;45.380;11.028;2022-12-10T08:58:41;51.25;;;29.88;;
23434;SDS011;11890;45.380;11.028;2022-12-10T09:01:10;55.85;;;26.40;;
23434;SDS011;11890;45.380;11.028;2022-12-10T09:03:39;48.53;;;26.40;;
23434;SDS011;11890;45.380;11.028;2022-12-10T09:06:12;49.72;;;27.38;;
23434;SDS011;11890;45.380;11.028;2022-12-10T09:08:44;51.15;;;28.08;;
23434;SDS011;11890;45.380;11.028;2022-12-10T09:11:13;50.92;;;25.95;;
23434;SDS011;11890;45.380;11.028;2022-12-10T09:13:50;47.60;;;24.90;;
23434;SDS011;11890;45.380;11.028;2022-12-10T09:16:18;53.08;;;27.27;;
23434;SDS011;11890;45.380;11.028;2022-12-10T09:18:45;52.35;;;26.50;;
23434;SDS011;11890;45.380;11.028;2022-12-10T09:21:14;57.97;;;26.58;;
23434;SDS011;11890;45.380;11.028;2022-12-10T09:23:43;51.85;;;27.70;;
23434;SDS011;11890;45.380;11.028;2022-12-10T09:26:15;49.83;;;25.85;;
23434;SDS011;11890;45.380;11.028;2022-12-10T09:28:43;41.42;;;22.67;;
23434;SDS011;11890;45.380;11.028;2022-12-10T09:31:12;49.35;;;25.40;;
23434;SDS011;11890;45.380;11.028;2022-12-10T09:33:44;52.73;;;25.63;;
23434;SDS011;11890;45.380;11.028;2022-12-10T09:36:13;48.60;;;23.95;;
23434;SDS011;11890;45.380;11.028;2022-12-10T09:38:42;50.67;;;26.23;;
23434;SDS011;11890;45.380;11.028;2022-12-10T09:41:28;49.88;;;24.63;;
23434;SDS011;11890;45.380;11.028;2022-12-10T09:47:05;36.72;;;20.08;;
23434;SDS011;11890;45.380;11.028;2022-12-10T09:52:21;48.88;;;25.75;;
23434;SDS011;11890;45.380;11.028;2022-12-10T09:54:55;45.80;;;23.83;;
23434;SDS011;11890;45.380;11.028;2022-12-10T09:57:30;51.88;;;24.90;;
23434;SDS011;11890;45.380;11.028;2022-12-10T10:00:04;50.88;;;26.23;;
23434;SDS011;11890;45.380;11.028;2022-12-10T10:02:40;49.33;;;25.02;;
23434;SDS011;11890;45.380;11.028;2022-12-10T10:07:41;48.95;;;25.95;;
23434;SDS011;11890;45.380;11.028;2022-12-10T10:10:32;52.60;;;26.33;;
23434;SDS011;11890;45.380;11.028;2022-12-10T10:15:36;52.28;;;26.02;;
23434;SDS011;11890;45.380;11.028;2022-12-10T10:18:30;54.90;;;29.40;;
23434;SDS011;11890;45.380;11.028;2022-12-10T10:20:56;54.60;;;28.63;;
23434;SDS011;11890;45.380;11.028;2022-12-10T10:23:24;53.33;;;27.35;;
23434;SDS011;11890;45.380;11.028;2022-12-10T10:25:52;58.97;;;28.02;;
23434;SDS011;11890;45.380;11.028;2022-12-10T10:28:21;53.67;;;27.85;;
23434;SDS011;11890;45.380;11.028;2022-12-10T10:30:50;57.20;;;29.90;;
23434;SDS011;11890;45.380;11.028;2022-12-10T10:33:21;54.45;;;27.48;;
23434;SDS011;11890;45.380;11.028;2022-12-10T10:35:57;56.65;;;28.40;;
23434;SDS011;11890;45.380;11.028;2022-12-10T10:38:27;56.67;;;27.33;;
23434;SDS011;11890;45.380;11.028;2022-12-10T10:40:59;52.78;;;27.30;;
23434;SDS011;11890;45.380;11.028;2022-12-10T10:43:33;54.70;;;27.33;;
23434;SDS011;11890;45.380;11.028;2022-12-10T10:46:20;52.55;;;25.08;;
23434;SDS011;11890;45.380;11.028;2022-12-10T10:48:49;51.80;;;27.20;;
23434;SDS011;11890;45.380;11.028;2022-12-10T10:51:19;47.47;;;24.33;;
23434;SDS011;11890;45.380;11.028;2022-12-10T10:53:51;52.38;;;24.98;;
23434;SDS011;11890;45.380;11.028;2022-12-10T10:56:23;47.27;;;25.13;;
23434;SDS011;11890;45.380;11.028;2022-12-10T10:58:55;45.80;;;24.63;;
23434;SDS011;11890;45.380;11.028;2022-12-10T11:01:24;55.53;;;26.85;;
23434;SDS011;11890;45.380;11.028;2022-12-10T11:04:13;50.83;;;26.45;;
23434;SDS011;11890;45.380;11.028;2022-12-10T11:06:43;55.80;;;27.42;;
23434;SDS011;11890;45.380;11.028;2022-12-10T11:09:20;47.80;;;25.00;;
23434;SDS011;11890;45.380;11.028;2022-12-10T11:11:52;48.47;;;24.13;;
23434;SDS011;11890;45.380;11.028;2022-12-10T11:14:44;45.50;;;24.23;;
23434;SDS011;11890;45.380;11.028;2022-12-10T11:17:20;57.85;;;27.83;;
23434;SDS011;11890;45.380;11.028;2022-12-10T11:22:24;53.17;;;26.88;;
23434;SDS011;11890;45.380;11.028;2022-12-10T11:24:52;53.53;;;26.27;;
23434;SDS011;11890;45.380;11.028;2022-12-10T11:30:09;53.28;;;26.67;;
23434;SDS011;11890;45.380;11.028;2022-12-10T11:35:29;57.37;;;29.33;;
23434;SDS011;11890;45.380;11.028;2022-12-10T11:49:38;54.35;;;27.73;;
23434;SDS011;11890;45.380;11.028;2022-12-10T11:52:26;58.63;;;30.02;;
23434;SDS011;11890;45.380;11.028;2022-12-10T12:06:38;57.28;;;26.77;;
23434;SDS011;11890;45.380;11.028;2022-12-10T12:14:54;51.78;;;27.48;;
23434;SDS011;11890;45.380;11.028;2022-12-10T12:17:30;49.03;;;26.95;;
23434;SDS011;11890;45.380;11.028;2022-12-10T12:20:00;55.13;;;29.55;;
23434;SDS011;11890;45.380;11.028;2022-12-10T12:22:42;51.45;;;28.23;;
23434;SDS011;11890;45.380;11.028;2022-12-10T12:25:17;49.03;;;27.88;;
23434;SDS011;11890;45.380;11.028;2022-12-10T12:28:22;51.03;;;27.55;;
23434;SDS011;11890;45.380;11.028;2022-12-10T12:31:07;48.42;;;26.40;;
23434;SDS011;11890;45.380;11.028;2022-12-10T12:36:22;49.50;;;24.58;;
23434;SDS011;11890;45.380;11.028;2022-12-10T12:39:00;44.60;;;25.67;;
23434;SDS011;11890;45.380;11.028;2022-12-10T12:44:14;47.75;;;26.15;;
23434;SDS011;11890;45.380;11.028;2022-12-10T12:46:49;44.50;;;24.90;;
23434;SDS011;11890;45.380;11.028;2022-12-10T12:51:52;46.67;;;26.15;;
23434;SDS011;11890;45.380;11.028;2022-12-10T12:54:32;44.88;;;23.67;;
23434;SDS011;11890;45.380;11.028;2022-12-10T13:00:12;45.58;;;25.52;;
23434;SDS011;11890;45.380;11.028;2022-12-10T13:05:43;45.42;;;25.08;;
23434;SDS011;11890;45.380;11.028;2022-12-10T13:08:22;41.58;;;25.20;;
23434;SDS011;11890;45.380;11.028;2022-12-10T13:14:28;44.42;;;24.75;;
23434;SDS011;11890;45.380;11.028;2022-12-10T13:25:05;41.97;;;24.35;;
23434;SDS011;11890;45.380;11.028;2022-12-10T13:27:56;46.17;;;26.80;;
23434;SDS011;11890;45.380;11.028;2022-12-10T13:30:42;46.22;;;23.83;;
23434;SDS011;11890;45.380;11.028;2022-12-10T13:33:16;43.78;;;23.63;;
23434;SDS011;11890;45.380;11.028;2022-12-10T13:35:56;42.20;;;23.30;;
23434;SDS011;11890;45.380;11.028;2022-12-10T13:38:54;66.90;;;36.15;;
23434;SDS011;11890;45.380;11.028;2022-12-10T13:41:24;44.08;;;26.23;;
23434;SDS011;11890;45.380;11.028;2022-12-10T13:49:57;51.40;;;27.15;;
23434;SDS011;11890;45.380;11.028;2022-12-10T14:06:16;45.50;;;24.92;;
23434;SDS011;11890;45.380;11.028;2022-12-10T14:11:55;47.13;;;26.05;;
23434;SDS011;11890;45.380;11.028;2022-12-10T14:14:33;51.92;;;26.25;;
23434;SDS011;11890;45.380;11.028;2022-12-10T14:17:05;50.72;;;27.63;;
23434;SDS011;11890;45.380;11.028;2022-12-10T14:19:38;55.65;;;27.45;;
23434;SDS011;11890;45.380;11.028;2022-12-10T14:22:07;53.38;;;29.55;;
23434;SDS011;11890;45.380;11.028;2022-12-10T14:24:41;54.45;;;29.80;;
23434;SDS011;11890;45.380;11.028;2022-12-10T14:27:14;53.42;;;27.92;;
23434;SDS011;11890;45.380;11.028;2022-12-10T14:29:47;55.17;;;29.00;;
23434;SDS011;11890;45.380;11.028;2022-12-10T14:32:35;61.47;;;29.27;;
23434;SDS011;11890;45.380;11.028;2022-12-10T14:35:05;55.63;;;28.08;;
23434;SDS011;11890;45.380;11.028;2022-12-10T14:37:36;53.22;;;28.75;;
23434;SDS011;11890;45.380;11.028;2022-12-10T14:40:07;59.88;;;29.58;;
23434;SDS011;11890;45.380;11.028;2022-12-10T14:42:39;53.60;;;26.10;;
23434;SDS011;11890;45.380;11.028;2022-12-10T14:45:11;60.05;;;29.98;;
23434;SDS011;11890;45.380;11.028;2022-12-10T14:47:41;66.75;;;32.60;;
23434;SDS011;11890;45.380;11.028;2022-12-10T14:50:15;57.72;;;29.77;;
23434;SDS011;11890;45.380;11.028;2022-12-10T14:52:44;57.80;;;29.63;;
23434;SDS011;11890;45.380;11.028;2022-12-10T14:55:19;52.08;;;27.70;;
23434;SDS011;11890;45.380;11.028;2022-12-10T14:57:56;53.15;;;27.48;;
23434;SDS011;11890;45.380;11.028;2022-12-10T15:00:28;57.20;;;27.63;;
23434;SDS011;11890;45.380;11.028;2022-12-10T15:02:58;52.22;;;27.55;;
23434;SDS011;11890;45.380;11.028;2022-12-10T15:05:29;49.40;;;25.23;;
23434;SDS011;11890;45.380;11.028;2022-12-10T15:15:50;54.72;;;26.45;;
23434;SDS011;11890;45.380;11.028;2022-12-10T15:18:20;49.50;;;24.42;;
23434;SDS011;11890;45.380;11.028;2022-12-10T15:21:05;55.38;;;26.13;;
23434;SDS011;11890;45.380;11.028;2022-12-10T15:23:38;49.42;;;23.95;;
23434;SDS011;11890;45.380;11.028;2022-12-10T15:28:49;46.65;;;23.60;;
23434;SDS011;11890;45.380;11.028;2022-12-10T15:33:50;46.65;;;24.23;;
23434;SDS011;11890;45.380;11.028;2022-12-10T15:39:22;62.28;;;27.83;;
23434;SDS011;11890;45.380;11.028;2022-12-10T15:41:54;52.25;;;26.42;;
23434;SDS011;11890;45.380;11.028;2022-12-10T15:49:54;53.90;;;26.40;;
23434;SDS011;11890;45.380;11.028;2022-12-10T15:52:26;51.28;;;24.00;;
23434;SDS011;11890;45.380;11.028;2022-12-10T15:54:56;55.90;;;26.15;;
23434;SDS011;11890;45.380;11.028;2022-12-10T15:57:26;60.50;;;29.05;;
23434;SDS011;11890;45.380;11.028;2022-12-10T15:59:57;51.97;;;23.88;;
23434;SDS011;11890;45.380;11.028;2022-12-10T16:02:39;51.75;;;25.75;;
23434;SDS011;11890;45.380;11.028;2022-12-10T16:07:40;55.58;;;25.63;;
23434;SDS011;11890;45.380;11.028;2022-12-10T16:10:12;54.60;;;24.77;;
23434;SDS011;11890;45.380;11.028;2022-12-10T16:12:41;54.65;;;26.15;;
23434;SDS011;11890;45.380;11.028;2022-12-10T16:15:11;48.70;;;25.25;;
23434;SDS011;11890;45.380;11.028;2022-12-10T16:17:45;51.08;;;23.63;;
23434;SDS011;11890;45.380;11.028;2022-12-10T16:22:53;53.95;;;24.33;;
23434;SDS011;11890;45.380;11.028;2022-12-10T16:25:22;62.15;;;26.38;;
23434;SDS011;11890;45.380;11.028;2022-12-10T16:27:52;54.50;;;23.58;;
23434;SDS011;11890;45.380;11.028;2022-12-10T16:30:21;54.08;;;24.58;;
23434;SDS011;11890;45.380;11.028;2022-12-10T16:33:03;43.03;;;19.75;;
23434;SDS011;11890;45.380;11.028;2022-12-10T16:35:31;51.38;;;24.48;;
23434;SDS011;11890;45.380;11.028;2022-12-10T16:37:59;61.10;;;27.15;;
23434;SDS011;11890;45.380;11.028;2022-12-10T16:40:33;52.30;;;26.40;;
23434;SDS011;11890;45.380;11.028;2022-12-10T16:43:00;55.05;;;25.30;;
23434;SDS011;11890;45.380;11.028;2022-12-10T16:47:58;57.75;;;26.15;;
23434;SDS011;11890;45.380;11.028;2022-12-10T16:50:25;53.55;;;25.08;;
23434;SDS011;11890;45.380;11.028;2022-12-10T16:52:54;58.08;;;24.33;;
23434;SDS011;11890;45.380;11.028;2022-12-10T16:55:23;55.00;;;25.42;;
23434;SDS011;11890;45.380;11.028;2022-12-10T16:57:52;52.05;;;26.10;;
23434;SDS011;11890;45.380;11.028;2022-12-10T17:00:22;54.97;;;25.83;;
23434;SDS011;11890;45.380;11.028;2022-12-10T17:02:51;57.20;;;24.35;;
23434;SDS011;11890;45.380;11.028;2022-12-10T17:07:53;51.33;;;23.25;;
23434;SDS011;11890;45.380;11.028;2022-12-10T17:10:20;55.15;;;24.20;;
23434;SDS011;11890;45.380;11.028;2022-12-10T17:13:12;54.63;;;25.15;;
23434;SDS011;11890;45.380;11.028;2022-12-10T17:15:42;60.30;;;26.67;;
23434;SDS011;11890;45.380;11.028;2022-12-10T17:18:13;50.38;;;24.42;;